Time;durP1;ratioP1;P1;durP2;ratioP2;P2;SDS_P1;SDS_P2;PMS_P1;PMS_P2;Temp;Humidity;BMP_temperature;BMP_pressure;BME280_temperature;BME280_humidity;BME280_pressure;Samples;Min_cycle;Max_cycle;Signal;HPM_P1;HPM_P2
2022/04/17 05:02:51;;;;;;;7.35;4.70;;;4.80;94.60;;;;;;4872272;29;20294;-90
2022/04/17 05:05:18;;;;;;;5.97;4.00;;;4.70;94.60;;;;;;4879154;29;20049;-85
2022/04/17 05:07:46;;;;;;;6.97;4.57;;;4.10;97.30;;;;;;4878050;29;20136;-81
2022/04/17 05:10:13;;;;;;;8.07;4.43;;;4.20;96.90;;;;;;4877712;29;20049;-79
2022/04/17 05:12:40;;;;;;;6.38;4.10;;;4.40;96.30;;;;;;4878511;29;20049;-79
2022/04/17 05:15:11;;;;;;;7.30;4.50;;;4.50;95.60;;;;;;4877564;29;20132;-89
2022/04/17 05:17:38;;;;;;;6.88;4.03;;;4.50;95.30;;;;;;4878421;29;20575;-90
2022/04/17 05:20:10;;;;;;;7.65;4.40;;;4.70;94.90;;;;;;4880576;29;20049;-96
2022/04/17 05:22:39;;;;;;;6.75;4.05;;;4.70;95.10;;;;;;4876558;29;20111;-99
2022/04/17 05:25:10;;;;;;;6.60;3.92;;;4.80;95.50;;;;;;4885740;29;20053;-98
2022/04/17 05:27:38;;;;;;;6.68;3.95;;;5.00;95.30;;;;;;4860616;29;20136;-91
2022/04/17 05:30:08;;;;;;;7.55;4.07;;;5.10;94.70;;;;;;4880358;29;20049;-93
2022/04/17 05:32:37;;;;;;;5.70;3.60;;;5.10;94.00;;;;;;4879756;29;20053;-90
2022/04/17 05:35:09;;;;;;;5.53;3.80;;;5.00;94.30;;;;;;4879957;29;20068;-91
2022/04/17 05:37:43;;;;;;;7.97;3.83;;;5.10;94.40;;;;;;4881447;29;20053;-95
2022/04/17 05:43:12;;;;;;;5.50;3.60;;;5.10;94.80;;;;;;4874825;29;20052;-98
2022/04/17 05:48:34;;;;;;;6.15;3.35;;;5.10;94.60;;;;;;4885867;29;20056;-96
2022/04/17 05:54:12;;;;;;;7.13;3.40;;;5.00;94.80;;;;;;4878383;29;20117;-92
2022/04/17 05:59:28;;;;;;;5.82;3.10;;;5.30;94.10;;;;;;4886823;29;20091;-91
2022/04/17 06:07:29;;;;;;;4.82;3.03;;;5.40;93.40;;;;;;4877582;29;20045;-85
2022/04/17 06:09:56;;;;;;;4.97;2.92;;;5.40;93.10;;;;;;4880963;29;20137;-84
2022/04/17 06:18:43;;;;;;;5.40;3.40;;;5.50;92.60;;;;;;4889136;29;20078;-92
2022/04/17 06:27:15;;;;;;;4.97;3.10;;;5.70;92.30;;;;;;4880547;29;20048;-84
2022/04/17 06:29:42;;;;;;;5.22;3.08;;;5.70;92.20;;;;;;4885312;29;20399;-83
2022/04/17 06:32:10;;;;;;;5.95;3.47;;;5.70;92.50;;;;;;4871058;29;20473;-81
2022/04/17 06:34:37;;;;;;;6.25;3.50;;;5.70;91.70;;;;;;4882145;29;20061;-82
2022/04/17 06:37:12;;;;;;;5.80;3.50;;;5.60;91.60;;;;;;4884637;29;20113;-87
2022/04/17 06:39:44;;;;;;;6.55;3.33;;;5.70;91.90;;;;;;4879136;29;20053;-90
2022/04/17 06:42:12;;;;;;;5.32;3.05;;;5.90;91.90;;;;;;4884272;29;20057;-90
2022/04/17 06:44:39;;;;;;;4.82;3.05;;;6.00;91.50;;;;;;4882735;29;20455;-85
2022/04/17 06:47:06;;;;;;;6.70;3.05;;;5.90;91.70;;;;;;4884230;29;20519;-83
2022/04/17 06:49:33;;;;;;;5.13;3.30;;;6.00;91.30;;;;;;4881813;29;20085;-84
2022/04/17 06:52:01;;;;;;;6.22;3.50;;;6.00;91.50;;;;;;4880432;29;20432;-83
2022/04/17 06:54:28;;;;;;;5.47;2.72;;;6.20;91.50;;;;;;4880148;29;20407;-81
2022/04/17 06:56:57;;;;;;;5.30;2.83;;;6.30;91.00;;;;;;4880577;29;20561;-80
2022/04/17 06:59:24;;;;;;;5.25;3.10;;;6.30;91.30;;;;;;4880612;29;20071;-80
2022/04/17 07:01:53;;;;;;;5.03;3.00;;;6.20;90.60;;;;;;4861249;29;20061;-83
2022/04/17 07:04:20;;;;;;;4.82;2.70;;;6.30;90.70;;;;;;4878951;29;20167;-83
2022/04/17 07:06:47;;;;;;;5.50;2.80;;;6.40;90.60;;;;;;4867085;29;20053;-84
2022/04/17 07:09:14;;;;;;;5.25;2.83;;;6.60;90.50;;;;;;4878584;29;20479;-81
2022/04/17 07:11:41;;;;;;;4.85;2.70;;;6.60;89.50;;;;;;4880668;29;20063;-79
2022/04/17 07:14:14;;;;;;;4.50;2.88;;;6.70;90.20;;;;;;4880916;29;20097;-80
2022/04/17 07:16:41;;;;;;;5.00;2.80;;;6.70;89.00;;;;;;4880713;29;20118;-80
2022/04/17 07:19:08;;;;;;;4.78;2.92;;;6.80;89.90;;;;;;4880608;29;20063;-80
2022/04/17 07:21:36;;;;;;;16.45;8.20;;;6.70;88.70;;;;;;4880735;29;20053;-79
2022/04/17 07:24:03;;;;;;;12.13;6.07;;;6.70;88.70;;;;;;4880659;29;20522;-81
2022/04/17 07:26:30;;;;;;;7.28;3.95;;;6.80;90.00;;;;;;4880966;29;20053;-80
2022/04/17 07:28:57;;;;;;;5.30;3.10;;;7.00;90.00;;;;;;4879150;29;20104;-80
2022/04/17 07:31:26;;;;;;;4.60;2.72;;;7.00;87.90;;;;;;4876623;29;20132;-80
2022/04/17 07:33:53;;;;;;;9.20;3.35;;;7.10;88.00;;;;;;4881136;29;20053;-79
2022/04/17 07:36:21;;;;;;;5.28;2.65;;;7.30;85.20;;;;;;4881980;29;20088;-81
2022/04/17 07:38:48;;;;;;;4.53;2.50;;;7.40;83.80;;;;;;4882800;29;20064;-81
2022/04/17 07:41:15;;;;;;;4.65;2.15;;;7.60;83.60;;;;;;4883231;29;20152;-78
2022/04/17 07:43:42;;;;;;;4.53;2.10;;;7.90;80.30;;;;;;4874112;29;20060;-80
2022/04/17 07:46:10;;;;;;;4.32;2.13;;;8.00;78.20;;;;;;4893161;29;20502;-79
2022/04/17 07:48:38;;;;;;;4.65;1.95;;;8.10;79.10;;;;;;4874149;29;20052;-80
2022/04/17 07:51:05;;;;;;;5.18;1.60;;;8.20;74.70;;;;;;4880823;29;20190;-80
2022/04/17 07:53:32;;;;;;;3.95;2.03;;;8.20;74.30;;;;;;4873272;29;20143;-79
2022/04/17 07:55:59;;;;;;;3.65;2.10;;;8.30;72.30;;;;;;4859864;29;20057;-79
2022/04/17 07:58:34;;;;;;;4.45;2.00;;;8.30;70.50;;;;;;4861237;29;20148;-78
2022/04/17 08:01:10;;;;;;;3.95;1.77;;;8.50;70.20;;;;;;4880738;29;20152;-78
2022/04/17 08:03:47;;;;;;;4.10;1.75;;;8.70;68.60;;;;;;4879226;29;20061;-80
2022/04/17 08:06:16;;;;;;;3.35;1.50;;;8.70;68.50;;;;;;4878388;29;20060;-79
2022/04/17 08:08:44;;;;;;;4.30;1.70;;;8.80;67.50;;;;;;4863719;29;20373;-79
2022/04/17 08:11:12;;;;;;;3.38;1.75;;;8.80;67.00;;;;;;4870440;29;20140;-82
2022/04/17 08:13:42;;;;;;;3.70;1.65;;;8.80;65.60;;;;;;4862107;29;20463;-78
2022/04/17 08:16:09;;;;;;;3.88;1.67;;;8.80;64.90;;;;;;4862597;29;20075;-76
2022/04/17 08:18:38;;;;;;;4.82;2.10;;;8.90;63.80;;;;;;4879595;29;20049;-79
2022/04/17 08:21:06;;;;;;;3.70;1.65;;;8.90;63.40;;;;;;4877541;29;20051;-78
2022/04/17 08:23:35;;;;;;;4.30;1.70;;;9.10;63.30;;;;;;4870087;29;20495;-78
2022/04/17 08:26:03;;;;;;;3.13;1.60;;;9.10;63.70;;;;;;4880361;29;20049;-79
2022/04/17 08:28:30;;;;;;;3.85;1.90;;;9.10;62.00;;;;;;4874538;29;20064;-81
2022/04/17 08:30:57;;;;;;;3.67;2.00;;;9.00;61.10;;;;;;4876805;29;20139;-79
2022/04/17 08:33:26;;;;;;;4.43;2.15;;;9.10;63.00;;;;;;4862886;29;20054;-77
2022/04/17 08:35:57;;;;;;;3.90;1.75;;;9.20;62.70;;;;;;4886714;29;20127;-76
2022/04/17 08:38:25;;;;;;;3.60;1.70;;;9.30;61.80;;;;;;4883375;29;20053;-74
2022/04/17 08:40:52;;;;;;;2.88;1.58;;;9.40;61.20;;;;;;4880926;29;20083;-82
2022/04/17 08:43:21;;;;;;;3.40;1.90;;;9.40;61.10;;;;;;4882581;29;20053;-78
2022/04/17 08:45:50;;;;;;;4.13;1.88;;;9.20;60.20;;;;;;4877603;29;20057;-77
2022/04/17 08:48:18;;;;;;;3.90;1.63;;;9.40;62.30;;;;;;4873062;29;20051;-76
2022/04/17 08:50:48;;;;;;;4.60;1.60;;;9.40;61.40;;;;;;4864651;29;20538;-78
2022/04/17 08:53:17;;;;;;;4.22;1.75;;;9.40;60.30;;;;;;4878791;29;20053;-76
2022/04/17 08:55:45;;;;;;;3.53;1.70;;;9.40;61.10;;;;;;4880453;29;20048;-77
2022/04/17 08:58:12;;;;;;;5.05;2.17;;;9.50;60.60;;;;;;4860496;29;20057;-75
2022/04/17 09:00:39;;;;;;;4.38;1.98;;;9.60;61.10;;;;;;4879986;29;20060;-76
2022/04/17 09:03:10;;;;;;;4.68;2.13;;;9.50;59.10;;;;;;4877426;29;20506;-78
2022/04/17 09:05:38;;;;;;;3.35;1.70;;;9.60;60.60;;;;;;4876589;29;20509;-75
2022/04/17 09:08:19;;;;;;;4.10;1.80;;;9.60;59.90;;;;;;4872463;29;20443;-80
2022/04/17 09:10:57;;;;;;;4.03;1.80;;;9.80;59.50;;;;;;4863012;29;20510;-78
2022/04/17 09:13:31;;;;;;;3.60;1.63;;;9.80;59.80;;;;;;4850177;29;20050;-78
2022/04/17 09:15:59;;;;;;;4.85;2.00;;;9.90;59.00;;;;;;4861316;29;20082;-78
2022/04/17 09:18:31;;;;;;;3.33;1.58;;;10.10;58.80;;;;;;4866933;29;20080;-79
2022/04/17 09:21:01;;;;;;;4.13;1.40;;;10.10;60.00;;;;;;4874592;29;20118;-79
2022/04/17 09:23:38;;;;;;;4.90;1.80;;;10.20;56.20;;;;;;4871617;29;20049;-77
2022/04/17 09:26:06;;;;;;;4.10;1.75;;;10.20;55.80;;;;;;4863450;29;20087;-81
2022/04/17 09:28:35;;;;;;;4.03;1.70;;;10.20;55.80;;;;;;4868760;29;20061;-75
2022/04/17 09:31:10;;;;;;;3.15;1.40;;;10.40;55.90;;;;;;4878090;29;20097;-75
2022/04/17 09:33:37;;;;;;;;;;;10.30;55.30;;;;;;4859772;29;20132;-77
2022/04/17 09:36:05;;;;;;;3.55;1.70;;;10.20;55.60;;;;;;4862204;29;20046;-78
2022/04/17 09:38:35;;;;;;;4.65;1.83;;;10.30;55.90;;;;;;4862649;29;20136;-77
2022/04/17 09:41:07;;;;;;;4.28;1.63;;;10.50;55.70;;;;;;4863173;29;20056;-75
2022/04/17 09:43:35;;;;;;;3.80;1.70;;;10.60;55.50;;;;;;4853356;29;20054;-76
2022/04/17 09:46:04;;;;;;;4.50;1.80;;;10.90;54.40;;;;;;4862766;29;20060;-76
2022/04/17 09:48:33;;;;;;;3.83;1.50;;;10.60;51.70;;;;;;4862193;29;20404;-76
2022/04/17 09:51:02;;;;;;;4.20;1.80;;;10.70;52.30;;;;;;4861548;29;20496;-78
2022/04/17 09:53:36;;;;;;;4.30;1.73;;;10.70;52.00;;;;;;4879126;29;20510;-78
2022/04/17 09:56:11;;;;;;;4.65;1.80;;;10.80;52.10;;;;;;4880635;29;20045;-79
2022/04/17 09:58:45;;;;;;;6.43;2.00;;;10.90;51.60;;;;;;4868843;29;20110;-78
2022/04/17 10:01:16;;;;;;;3.35;1.50;;;10.80;51.30;;;;;;4865869;29;20084;-77
2022/04/17 10:03:44;;;;;;;3.22;1.50;;;10.90;52.90;;;;;;4861469;29;20057;-79
2022/04/17 10:06:13;;;;;;;3.58;1.40;;;11.00;53.20;;;;;;4861322;29;20053;-77
2022/04/17 10:08:44;;;;;;;4.28;1.40;;;11.20;52.80;;;;;;4861870;29;20053;-75
2022/04/17 10:11:14;;;;;;;3.95;1.55;;;11.20;52.50;;;;;;4870578;29;20071;-77
2022/04/17 10:13:42;;;;;;;3.28;1.48;;;11.30;51.80;;;;;;4871414;29;20770;-76
2022/04/17 10:16:10;;;;;;;3.42;1.60;;;11.40;52.20;;;;;;4875230;29;20053;-80
2022/04/17 10:18:41;;;;;;;3.00;1.10;;;11.60;51.80;;;;;;4862122;29;20060;-79
2022/04/17 10:21:09;;;;;;;4.47;1.42;;;11.60;50.90;;;;;;4852339;29;20062;-80
2022/04/17 10:23:42;;;;;;;2.70;1.23;;;11.60;50.10;;;;;;4863842;29;20061;-81
2022/04/17 10:26:15;;;;;;;4.18;1.38;;;11.60;49.50;;;;;;4879516;29;20069;-79
2022/04/17 10:28:48;;;;;;;3.15;1.40;;;11.50;49.30;;;;;;4864535;29;20567;-76
2022/04/17 10:31:19;;;;;;;3.80;1.70;;;11.60;50.00;;;;;;4860023;29;20061;-79
2022/04/17 10:34:32;;;;;;;3.03;1.60;;;11.60;49.30;;;;;;4864406;29;20052;-77
2022/04/17 10:37:28;;;;;;;2.67;1.20;;;11.60;49.50;;;;;;4849600;29;20483;-76
2022/04/17 10:39:57;;;;;;;3.88;1.40;;;11.60;49.20;;;;;;4861390;29;20050;-76
2022/04/17 10:42:35;;;;;;;4.20;1.58;;;11.60;51.80;;;;;;4863630;29;20060;-77
2022/04/17 10:45:03;;;;;;;4.38;1.50;;;11.80;50.50;;;;;;4857018;29;20050;-80
2022/04/17 10:47:30;;;;;;;2.65;1.33;;;11.80;51.20;;;;;;4871813;29;20105;-77
2022/04/17 10:50:00;;;;;;;4.70;2.03;;;11.90;51.30;;;;;;4863060;29;20145;-79
2022/04/17 10:52:29;;;;;;;3.72;1.50;;;11.90;51.60;;;;;;4873424;29;20552;-79
2022/04/17 10:55:08;;;;;;;3.38;1.40;;;12.10;50.90;;;;;;4863278;29;20061;-82
2022/04/17 10:57:50;;;;;;;4.55;1.30;;;12.00;50.10;;;;;;4852513;29;20091;-86
2022/04/17 11:00:37;;;;;;;3.25;1.50;;;12.10;50.20;;;;;;4846409;29;20108;-85
2022/04/17 11:03:12;;;;;;;3.88;1.30;;;12.20;50.50;;;;;;4853059;29;20084;-84
2022/04/17 11:08:56;;;;;;;3.10;1.50;;;12.40;50.00;;;;;;4808299;29;20050;-75
2022/04/17 11:11:23;;;;;;;2.90;1.30;;;12.30;50.20;;;;;;4858407;29;20144;-79
2022/04/17 11:14:12;;;;;;;2.58;1.13;;;12.30;49.50;;;;;;4859489;29;20137;-79
2022/04/17 11:16:56;;;;;;;4.00;1.52;;;12.60;49.60;;;;;;4867411;29;20144;-77
2022/04/17 11:19:25;;;;;;;2.70;1.30;;;12.60;50.70;;;;;;4867148;29;20053;-80
2022/04/17 11:21:58;;;;;;;3.45;1.38;;;12.70;50.00;;;;;;4868486;29;20412;-76
2022/04/17 11:24:29;;;;;;;3.47;1.70;;;12.70;49.80;;;;;;4868232;29;20054;-78
2022/04/17 11:27:10;;;;;;;4.72;1.80;;;12.60;49.40;;;;;;4863739;29;20064;-80
2022/04/17 11:29:44;;;;;;;2.90;1.40;;;12.60;48.80;;;;;;4869228;29;20507;-78
2022/04/17 11:32:50;;;;;;;4.55;1.73;;;12.70;49.00;;;;;;4868913;29;20471;-78
2022/04/17 11:35:22;;;;;;;4.30;1.85;;;12.70;48.40;;;;;;4864681;29;20464;-77
2022/04/17 11:38:04;;;;;;;3.78;1.70;;;12.80;47.60;;;;;;4864632;29;20535;-75
2022/04/17 11:40:37;;;;;;;3.28;1.30;;;12.90;48.50;;;;;;4863082;29;20463;-75
2022/04/17 11:43:12;;;;;;;3.47;1.60;;;13.00;47.60;;;;;;4862113;29;20212;-77
2022/04/17 11:45:42;;;;;;;2.78;1.33;;;13.10;48.00;;;;;;4862038;29;20132;-77
2022/04/17 11:48:11;;;;;;;3.58;1.50;;;13.30;47.30;;;;;;4861825;29;20100;-76
2022/04/17 11:50:40;;;;;;;2.63;1.30;;;13.30;49.50;;;;;;4862263;29;20552;-78
2022/04/17 11:53:12;;;;;;;3.97;1.50;;;13.50;47.30;;;;;;4861669;29;20057;-80
2022/04/17 11:55:40;;;;;;;4.03;1.65;;;13.40;47.50;;;;;;4861702;29;20507;-77
2022/04/17 11:58:11;;;;;;;3.33;1.35;;;13.60;47.00;;;;;;4861933;29;20142;-78
2022/04/17 12:00:40;;;;;;;3.85;1.40;;;13.60;46.70;;;;;;4861640;29;20049;-80
2022/04/17 12:03:09;;;;;;;4.20;1.60;;;13.60;46.70;;;;;;4861514;29;20084;-78
2022/04/17 12:05:37;;;;;;;6.10;2.10;;;13.60;46.50;;;;;;4861487;29;20264;-77
2022/04/17 12:08:09;;;;;;;4.40;1.55;;;13.60;46.10;;;;;;4865608;29;20562;-77
2022/04/17 12:10:38;;;;;;;3.42;1.50;;;13.60;45.10;;;;;;4864786;29;20090;-78
2022/04/17 12:13:17;;;;;;;3.13;1.40;;;13.90;45.10;;;;;;4865360;29;20076;-80
2022/04/17 12:15:48;;;;;;;3.45;1.30;;;14.00;45.60;;;;;;4862501;29;20412;-77
2022/04/17 12:18:19;;;;;;;2.83;1.27;;;14.00;46.00;;;;;;4869413;29;20046;-80
2022/04/17 12:20:58;;;;;;;3.35;1.40;;;14.00;44.40;;;;;;4877312;29;20088;-80
2022/04/17 12:23:25;;;;;;;2.45;1.13;;;14.20;43.90;;;;;;4864623;29;20058;-76
2022/04/17 12:25:53;;;;;;;2.45;1.10;;;14.20;43.00;;;;;;4861605;29;20053;-78
2022/04/17 12:28:22;;;;;;;4.05;1.30;;;14.40;44.10;;;;;;4867902;29;20447;-78
2022/04/17 12:30:50;;;;;;;3.90;1.30;;;14.40;43.10;;;;;;4881918;29;20561;-77
2022/04/17 12:33:23;;;;;;;2.60;1.17;;;14.50;44.20;;;;;;4880205;29;20073;-75
2022/04/17 12:36:07;;;;;;;3.70;1.30;;;14.60;43.60;;;;;;4880492;29;20144;-76
2022/04/17 12:38:35;;;;;;;3.13;1.30;;;14.80;43.10;;;;;;4867385;29;20081;-76
2022/04/17 12:41:02;;;;;;;3.17;1.40;;;15.00;43.00;;;;;;4861035;29;20137;-76
2022/04/17 12:43:31;;;;;;;3.33;1.33;;;15.10;41.90;;;;;;4859601;29;20139;-78
2022/04/17 12:46:04;;;;;;;3.03;1.25;;;15.10;42.20;;;;;;4841684;29;20129;-76
2022/04/17 12:48:33;;;;;;;2.30;1.00;;;15.30;42.90;;;;;;4853338;29;20045;-79
2022/04/17 12:51:04;;;;;;;2.50;1.08;;;15.50;43.30;;;;;;4844393;29;20105;-77
2022/04/17 12:53:39;;;;;;;2.15;1.00;;;15.80;42.80;;;;;;4845387;29;20050;-76
2022/04/17 12:56:08;;;;;;;2.70;1.15;;;15.80;42.50;;;;;;4845501;29;20069;-78
2022/04/17 12:58:52;;;;;;;2.45;1.13;;;15.80;42.50;;;;;;4857733;29;20057;-78
2022/04/17 13:01:22;;;;;;;2.17;1.10;;;15.90;42.10;;;;;;4861314;29;20798;-78
2022/04/17 13:03:50;;;;;;;3.45;1.30;;;15.90;42.00;;;;;;4874549;29;20095;-76
2022/04/17 13:06:23;;;;;;;3.03;1.38;;;16.00;43.80;;;;;;4882523;29;20503;-77
2022/04/17 13:09:12;;;;;;;2.95;1.30;;;15.90;43.10;;;;;;4869528;29;20067;-81
2022/04/17 13:11:43;;;;;;;3.08;1.30;;;16.00;43.90;;;;;;4862189;29;20068;-75
2022/04/17 13:14:11;;;;;;;3.88;1.50;;;16.30;45.20;;;;;;4862242;29;20511;-74
2022/04/17 13:16:51;;;;;;;2.47;1.10;;;16.40;44.00;;;;;;4862530;29;20144;-78
2022/04/17 13:19:19;;;;;;;2.97;1.30;;;16.40;43.50;;;;;;4872704;29;20145;-78
2022/04/17 13:21:47;;;;;;;2.83;1.20;;;16.40;41.80;;;;;;4876208;29;20053;-79
2022/04/17 13:24:16;;;;;;;3.10;1.33;;;16.30;41.60;;;;;;4868198;29;20583;-77
2022/04/17 13:26:44;;;;;;;2.60;1.20;;;16.20;41.50;;;;;;4883551;29;20049;-78
2022/04/17 13:29:11;;;;;;;2.50;1.20;;;16.60;42.20;;;;;;4883620;29;20487;-79
2022/04/17 13:31:39;;;;;;;3.28;1.20;;;17.10;40.00;;;;;;4882934;29;20059;-77
2022/04/17 13:34:07;;;;;;;2.90;1.33;;;17.10;40.70;;;;;;4869288;29;20080;-79
2022/04/17 13:36:35;;;;;;;3.03;1.25;;;17.30;40.40;;;;;;4863857;29;20093;-77
2022/04/17 13:39:02;;;;;;;2.92;1.25;;;18.10;40.80;;;;;;4863230;29;20145;-78
2022/04/17 13:41:30;;;;;;;2.67;1.00;;;18.40;37.90;;;;;;4871361;29;20055;-77
2022/04/17 13:43:57;;;;;;;2.72;1.10;;;18.10;39.00;;;;;;4882508;29;20064;-80
2022/04/17 13:46:28;;;;;;;3.10;1.40;;;18.40;39.40;;;;;;4881445;29;20785;-78
2022/04/17 13:48:56;;;;;;;3.08;1.25;;;18.60;37.70;;;;;;4882506;29;20060;-78
2022/04/17 13:51:25;;;;;;;4.60;1.83;;;18.60;39.30;;;;;;4873690;29;20104;-78
2022/04/17 13:53:52;;;;;;;2.90;1.20;;;18.60;39.20;;;;;;4882409;29;20513;-80
2022/04/17 13:56:19;;;;;;;2.40;1.20;;;18.30;40.50;;;;;;4882178;29;20135;-78
2022/04/17 13:58:47;;;;;;;2.30;1.10;;;19.70;38.90;;;;;;4881916;29;20071;-77
2022/04/17 14:01:14;;;;;;;2.80;1.15;;;20.10;37.50;;;;;;4876497;29;20148;-79
2022/04/17 14:03:42;;;;;;;2.50;1.20;;;19.60;39.00;;;;;;4873310;29;20503;-79
2022/04/17 14:06:11;;;;;;;3.00;1.20;;;19.70;37.90;;;;;;4863529;29;20480;-78
2022/04/17 14:08:41;;;;;;;2.45;1.13;;;20.10;37.80;;;;;;4872765;29;20063;-77
2022/04/17 14:11:08;;;;;;;2.63;1.10;;;19.70;36.90;;;;;;4881065;29;20143;-79
2022/04/17 14:13:35;;;;;;;2.47;1.10;;;20.30;38.50;;;;;;4881573;29;20063;-77
2022/04/17 14:16:03;;;;;;;2.42;1.17;;;21.00;37.10;;;;;;4875517;29;20128;-79
2022/04/17 14:18:30;;;;;;;2.53;1.30;;;20.40;36.10;;;;;;4864450;29;20403;-79
2022/04/17 14:20:57;;;;;;;3.63;1.40;;;19.80;37.60;;;;;;4864145;29;20050;-79
2022/04/17 14:23:24;;;;;;;2.85;1.35;;;21.00;37.70;;;;;;4865829;29;20136;-78
2022/04/17 14:25:54;;;;;;;3.45;1.58;;;20.60;36.10;;;;;;4881059;29;20080;-80
2022/04/17 14:28:21;;;;;;;3.00;1.30;;;20.00;36.10;;;;;;4877018;29;20053;-78
2022/04/17 14:30:48;;;;;;;2.80;1.30;;;20.50;35.90;;;;;;4862747;29;20064;-81
2022/04/17 14:33:15;;;;;;;3.53;1.20;;;20.00;36.30;;;;;;4863202;29;20065;-78
2022/04/17 14:35:42;;;;;;;2.92;1.55;;;19.70;35.80;;;;;;4862440;29;20069;-77
2022/04/17 14:38:09;;;;;;;2.92;1.40;;;20.40;34.90;;;;;;4862810;29;20057;-80
2022/04/17 14:40:37;;;;;;;3.30;1.25;;;21.80;36.10;;;;;;4866481;29;20117;-78
2022/04/17 14:43:05;;;;;;;2.70;1.20;;;22.80;32.40;;;;;;4866663;29;20084;-79
2022/04/17 14:45:33;;;;;;;2.55;1.23;;;23.00;33.10;;;;;;4868015;29;20084;-79
2022/04/17 14:48:00;;;;;;;3.03;1.42;;;24.80;33.40;;;;;;4880201;29;20413;-78
2022/04/17 14:50:27;;;;;;;2.38;1.30;;;25.30;34.20;;;;;;4861119;29;20145;-78
2022/04/17 14:52:54;;;;;;;3.30;1.40;;;25.80;33.40;;;;;;4861836;29;20053;-80
2022/04/17 14:55:22;;;;;;;4.32;1.75;;;25.70;31.90;;;;;;4875290;29;20095;-79
2022/04/17 14:57:50;;;;;;;2.80;1.10;;;26.20;32.20;;;;;;4872544;29;20099;-76
2022/04/17 15:00:18;;;;;;;3.00;1.20;;;24.60;32.90;;;;;;4866836;29;20057;-82
2022/04/17 15:02:46;;;;;;;4.13;1.40;;;25.30;32.80;;;;;;4872253;29;20141;-83
2022/04/17 15:05:13;;;;;;;3.13;1.60;;;24.60;32.60;;;;;;4868077;29;20478;-82
2022/04/17 15:07:40;;;;;;;4.03;2.20;;;25.30;31.50;;;;;;4865286;29;20117;-78
2022/04/17 15:10:09;;;;;;;3.28;1.67;;;25.60;30.10;;;;;;4863516;29;20095;-79
2022/04/17 15:12:36;;;;;;;4.47;2.50;;;24.80;31.10;;;;;;4876265;29;20120;-78
2022/04/17 15:15:04;;;;;;;2.63;1.20;;;25.30;32.10;;;;;;4872119;29;20064;-83
2022/04/17 15:17:33;;;;;;;2.63;1.35;;;24.90;30.90;;;;;;4863998;29;20076;-78
2022/04/17 15:20:00;;;;;;;3.08;1.20;;;24.80;30.70;;;;;;4861073;29;20157;-76
2022/04/17 15:22:27;;;;;;;2.83;1.30;;;25.70;30.10;;;;;;4860356;29;20423;-76
2022/04/17 15:24:54;;;;;;;2.50;1.02;;;26.30;31.10;;;;;;4876180;29;20087;-77
2022/04/17 15:27:21;;;;;;;3.25;1.33;;;25.20;30.70;;;;;;4868915;29;20046;-77
2022/04/17 15:29:48;;;;;;;3.55;1.40;;;24.70;31.20;;;;;;4860184;29;20092;-78
2022/04/17 15:32:15;;;;;;;2.90;1.40;;;24.90;31.00;;;;;;4860078;29;20053;-76
2022/04/17 15:34:44;;;;;;;4.40;1.70;;;24.80;30.40;;;;;;4860289;29;20471;-76
2022/04/17 15:37:11;;;;;;;3.17;1.38;;;23.50;31.80;;;;;;4858202;29;20049;-76
2022/04/17 15:39:38;;;;;;;2.70;1.30;;;24.10;32.10;;;;;;4878529;29;20052;-78
2022/04/17 15:42:06;;;;;;;4.03;1.48;;;24.30;31.20;;;;;;4865499;29;20408;-76
2022/04/17 15:50:05;;;;;;;3.63;1.25;;;22.00;31.70;;;;;;4880034;29;20064;-78
2022/04/17 15:52:32;;;;;;;3.35;1.40;;;22.50;31.50;;;;;;4859160;29;20069;-78
2022/04/17 15:54:59;;;;;;;2.90;1.33;;;22.40;32.50;;;;;;4859734;29;20071;-76
2022/04/17 15:57:27;;;;;;;3.10;1.20;;;21.70;31.40;;;;;;4859620;29;20049;-77
2022/04/17 15:59:54;;;;;;;4.05;1.30;;;22.20;32.10;;;;;;4862335;29;20058;-78
2022/04/17 16:02:21;;;;;;;3.35;1.20;;;22.90;32.30;;;;;;4859966;29;20056;-78
2022/04/17 16:04:48;;;;;;;3.13;1.20;;;22.50;30.70;;;;;;4851594;29;20060;-76
2022/04/17 16:07:16;;;;;;;2.60;1.13;;;21.30;31.30;;;;;;4843157;29;20064;-73
2022/04/17 16:09:43;;;;;;;2.30;1.00;;;22.60;31.60;;;;;;4840046;29;20072;-80
2022/04/17 16:12:10;;;;;;;2.42;1.00;;;22.20;32.00;;;;;;4841365;29;20064;-80
2022/04/17 16:14:37;;;;;;;3.35;1.27;;;21.90;31.70;;;;;;4855128;29;20054;-78
2022/04/17 16:17:05;;;;;;;2.58;1.25;;;23.20;33.00;;;;;;4858353;29;20678;-77
2022/04/17 16:19:32;;;;;;;4.22;2.40;;;23.10;31.20;;;;;;4858341;29;20541;-78
2022/04/17 16:22:00;;;;;;;4.68;2.10;;;23.20;32.10;;;;;;4857055;29;20144;-77
2022/04/17 16:24:28;;;;;;;4.05;1.83;;;22.90;32.60;;;;;;4867240;29;20081;-79
2022/04/17 16:26:55;;;;;;;3.95;2.08;;;23.30;33.20;;;;;;4867755;29;20049;-78
2022/04/17 16:29:23;;;;;;;3.10;1.60;;;24.10;33.10;;;;;;4871880;29;20114;-80
2022/04/17 16:31:50;;;;;;;2.60;1.30;;;23.90;32.00;;;;;;4878956;29;20521;-74
2022/04/17 16:34:17;;;;;;;2.70;1.35;;;23.10;32.40;;;;;;4867745;29;20134;-73
2022/04/17 16:36:44;;;;;;;3.17;1.50;;;23.10;32.40;;;;;;4869331;29;20169;-77
2022/04/17 16:39:11;;;;;;;4.32;2.60;;;23.50;32.50;;;;;;4860396;29;20507;-76
2022/04/17 16:41:40;;;;;;;4.07;1.70;;;22.00;31.50;;;;;;4860840;29;20075;-75
2022/04/17 16:44:07;;;;;;;3.72;1.65;;;22.20;33.30;;;;;;4858270;29;20175;-78
2022/04/17 16:46:34;;;;;;;3.20;1.50;;;22.30;31.60;;;;;;4857675;29;20054;-78
2022/04/17 16:49:01;;;;;;;2.85;1.50;;;21.60;32.30;;;;;;4866490;29;20041;-79
2022/04/17 16:51:28;;;;;;;2.97;1.40;;;21.50;32.80;;;;;;4866777;29;20111;-76
2022/04/17 16:53:56;;;;;;;4.38;2.00;;;20.90;32.70;;;;;;4858254;29;20057;-76
2022/04/17 16:56:23;;;;;;;4.78;2.67;;;21.00;34.50;;;;;;4852824;29;20137;-76
2022/04/17 17:01:36;;;;;;;3.38;1.42;;;20.40;34.40;;;;;;4840054;29;20068;-79
2022/04/17 17:04:03;;;;;;;3.85;1.67;;;20.40;35.20;;;;;;4855577;29;20056;-75
2022/04/17 17:06:30;;;;;;;3.05;1.50;;;20.30;35.00;;;;;;4866022;29;20049;-80
2022/04/17 17:08:58;;;;;;;2.67;1.40;;;20.20;35.30;;;;;;4867136;29;20053;-75
2022/04/17 17:11:25;;;;;;;2.90;1.35;;;20.00;35.90;;;;;;4878120;29;20724;-75
2022/04/17 17:13:54;;;;;;;2.97;1.48;;;20.00;36.30;;;;;;4866376;29;20127;-79
2022/04/17 17:16:23;;;;;;;3.10;1.70;;;20.20;36.10;;;;;;4864911;29;20453;-78
2022/04/17 17:18:50;;;;;;;3.17;1.60;;;20.30;35.30;;;;;;4858355;29;20053;-80
2022/04/17 17:21:17;;;;;;;4.10;2.20;;;20.40;36.00;;;;;;4858468;29;20514;-80
2022/04/17 17:23:44;;;;;;;8.80;5.38;;;20.30;36.00;;;;;;4858417;29;20076;-81
2022/04/17 17:26:11;;;;;;;7.00;3.90;;;19.80;35.60;;;;;;4856884;29;20529;-79
2022/04/17 17:28:39;;;;;;;4.57;2.10;;;19.90;36.70;;;;;;4875748;29;20053;-78
2022/04/17 17:31:08;;;;;;;4.88;1.70;;;19.50;35.80;;;;;;4867950;29;20457;-79
2022/04/17 17:33:35;;;;;;;3.42;1.48;;;19.20;36.60;;;;;;4857858;29;20060;-77
2022/04/17 17:36:06;;;;;;;3.25;1.60;;;19.20;37.50;;;;;;4858372;29;20476;-78
2022/04/17 17:38:34;;;;;;;2.95;1.52;;;18.60;36.70;;;;;;4861715;29;20089;-79
2022/04/17 17:41:03;;;;;;;3.30;1.58;;;18.70;37.90;;;;;;4862309;29;20368;-79
2022/04/17 17:43:32;;;;;;;4.32;1.70;;;19.00;38.20;;;;;;4861886;29;20053;-78
2022/04/17 17:46:01;;;;;;;3.53;1.60;;;18.80;37.60;;;;;;4865670;29;20059;-77
2022/04/17 17:48:30;;;;;;;2.97;1.40;;;18.70;38.20;;;;;;4858558;29;20057;-78
2022/04/17 17:50:58;;;;;;;3.25;1.40;;;18.50;37.60;;;;;;4846627;29;20054;-78
2022/04/17 17:53:25;;;;;;;3.20;1.45;;;18.30;37.30;;;;;;4862977;29;20132;-78
2022/04/17 17:55:52;;;;;;;3.42;1.33;;;18.00;38.00;;;;;;4875658;29;20512;-81
2022/04/17 17:58:19;;;;;;;2.88;1.48;;;18.00;37.60;;;;;;4880850;29;20053;-79
2022/04/17 18:00:46;;;;;;;3.92;1.70;;;17.90;38.30;;;;;;4881762;29;20591;-78
2022/04/17 18:03:14;;;;;;;2.85;1.50;;;17.90;37.70;;;;;;4887743;29;20152;-74
2022/04/17 18:05:42;;;;;;;3.92;1.50;;;17.50;37.80;;;;;;4894882;29;20048;-77
2022/04/17 18:16:24;;;;;;;4.28;1.60;;;16.90;39.30;;;;;;4869950;29;20068;-77
2022/04/17 18:18:51;;;;;;;3.10;1.42;;;16.40;39.70;;;;;;4863574;29;20052;-78
2022/04/17 18:21:20;;;;;;;3.80;1.60;;;16.20;40.40;;;;;;4879870;29;20049;-77
2022/04/17 18:23:47;;;;;;;3.67;1.70;;;16.10;41.10;;;;;;4883870;29;20071;-80
2022/04/17 18:26:14;;;;;;;3.58;1.50;;;15.90;41.10;;;;;;4870835;29;20045;-81
2022/04/17 18:28:42;;;;;;;3.33;1.63;;;15.90;41.70;;;;;;4879957;29;20415;-77
2022/04/17 18:31:09;;;;;;;3.33;1.73;;;15.80;41.20;;;;;;4879307;29;20061;-78
2022/04/17 18:33:37;;;;;;;3.30;1.80;;;15.40;41.80;;;;;;4878879;29;20093;-76
2022/04/17 18:36:05;;;;;;;3.60;1.80;;;15.20;42.10;;;;;;4872986;29;20055;-78
2022/04/17 18:38:35;;;;;;;3.67;1.50;;;14.90;42.80;;;;;;4869363;29;20049;-76
2022/04/17 18:41:03;;;;;;;3.08;1.48;;;14.80;43.10;;;;;;4871781;29;20045;-78
2022/04/17 18:43:30;;;;;;;4.07;1.65;;;14.80;43.90;;;;;;4885746;29;20065;-78
2022/04/17 18:46:00;;;;;;;3.10;1.38;;;14.70;43.90;;;;;;4881770;29;20150;-77
2022/04/17 18:48:27;;;;;;;4.70;1.50;;;14.80;44.40;;;;;;4866591;29;20053;-77
2022/04/17 18:50:54;;;;;;;3.38;1.65;;;14.40;43.60;;;;;;4880030;29;20068;-77
2022/04/17 18:53:21;;;;;;;4.30;1.65;;;14.40;44.40;;;;;;4883222;29;20049;-78